Time;durP1;ratioP1;P1;durP2;ratioP2;P2;SDS_P1;SDS_P2;PMS_P1;PMS_P2;Temp;Humidity;BMP_temperature;BMP_pressure;BME280_temperature;BME280_humidity;BME280_pressure;Samples;Min_cycle;Max_cycle;Signal;HPM_P1;HPM_P2
2022/12/14 00:01:18;;;;;;;4.10;3.70;;;;;;;18.71;42.65;96060.28;4949082;29;20422;-87
2022/12/14 00:03:45;;;;;;;4.37;3.97;;;;;;;20.20;42.70;96266.53;4936736;29;20320;-87
2022/12/14 00:06:15;;;;;;;3.93;3.63;;;;;;;17.25;42.56;95763.66;4951899;29;20221;-86
2022/12/14 00:08:43;;;;;;;3.80;3.50;;;;;;;19.64;42.67;96166.25;4949807;29;20296;-86
2022/12/14 00:11:09;;;;;;;4.00;3.60;;;;;;;18.40;43.07;96019.84;4945479;29;20337;-86
2022/12/14 00:13:36;;;;;;;4.60;4.20;;;;;;;17.59;42.64;95826.09;4930212;29;20301;-87
2022/12/14 00:16:07;;;;;;;3.90;3.50;;;;;;;19.07;42.67;96078.69;4928563;29;20315;-86
2022/12/14 00:18:34;;;;;;;3.67;3.37;;;;;;;20.18;42.57;96271.63;4933368;29;20208;-87
2022/12/14 00:21:05;;;;;;;4.07;3.67;;;;;;;20.18;42.70;96286.94;4944287;28;20217;-86
2022/12/14 00:23:31;;;;;;;3.93;3.53;;;;;;;20.18;42.69;96289.47;4952061;29;20307;-85
2022/12/14 00:26:08;;;;;;;3.87;3.53;;;;;;;19.51;42.81;96167.72;4947784;29;20239;-86
2022/12/14 00:28:35;;;;;;;3.90;3.50;;;;;;;20.18;42.79;96271.63;4947844;29;20212;-87
2022/12/14 00:31:01;;;;;;;3.37;3.07;;;;;;;20.19;42.73;96260.56;4940687;29;20237;-87
2022/12/14 00:33:28;;;;;;;3.87;3.57;;;;;;;14.06;42.60;95224.63;4952595;29;20236;-87
2022/12/14 00:35:55;;;;;;;4.03;3.63;;;;;;;17.64;42.80;95816.84;4947106;29;20239;-86
2022/12/14 00:38:21;;;;;;;3.60;3.30;;;;;;;18.08;42.69;95938.75;4949944;29;20204;-86
2022/12/14 00:40:48;;;;;;;3.43;3.13;;;;;;;20.20;43.02;96261.44;4949074;28;20220;-85
2022/12/14 00:43:15;;;;;;;4.00;3.70;;;;;;;20.20;42.68;96264.84;4949008;29;20232;-87
2022/12/14 00:45:44;;;;;;;4.10;3.70;;;;;;;18.38;42.47;95996.94;4952285;29;20197;-87
2022/12/14 00:48:12;;;;;;;3.83;3.37;;;;;;;19.25;42.58;96105.31;4931009;29;20226;-86
2022/12/14 00:50:39;;;;;;;4.10;3.67;;;;;;;15.10;42.64;95391.16;4937254;29;20692;-87
2022/12/14 00:53:05;;;;;;;4.13;3.73;;;;;;;17.73;42.70;95847.47;4930310;29;20651;-87
2022/12/14 00:55:39;;;;;;;3.70;3.40;;;;;;;15.05;42.69;95392.72;4953235;29;20229;-87
2022/12/14 00:58:06;;;;;;;3.90;3.50;;;;;;;19.46;42.82;96153.22;4963909;28;20211;-87
2022/12/14 01:00:32;;;;;;;3.87;3.57;;;;;;;16.93;42.71;95784.19;4944282;28;20211;-87
2022/12/14 01:02:59;;;;;;;4.17;3.87;;;;;;;16.92;42.75;95780.78;4941120;29;20218;-87
2022/12/14 01:05:25;;;;;;;4.40;4.00;;;;;;;16.48;42.95;95691.97;4948864;29;20209;-87
2022/12/14 01:07:52;;;;;;;4.27;3.90;;;;;;;13.97;42.90;95282.50;4950213;29;20680;-86
2022/12/14 01:10:19;;;;;;;3.90;3.50;;;;;;;20.19;42.74;96295.44;4948877;29;20291;-87
2022/12/14 01:12:45;;;;;;;3.90;3.60;;;;;;;20.19;42.81;96287.78;4950981;29;20209;-86
2022/12/14 01:15:12;;;;;;;3.33;3.03;;;;;;;19.14;42.79;96105.97;4949715;29;20209;-87
2022/12/14 01:17:39;;;;;;;3.70;3.40;;;;;;;20.18;42.84;96269.06;4947610;29;20272;-86
2022/12/14 01:20:06;;;;;;;4.10;3.70;;;;;;;12.95;42.80;95101.81;4940037;29;20213;-87
2022/12/14 01:22:32;;;;;;;3.87;3.57;;;;;;;20.19;43.21;96263.13;4943763;29;20237;-86
2022/12/14 01:24:59;;;;;;;3.87;3.57;;;;;;;20.19;42.99;96263.13;4948186;29;20288;-87
2022/12/14 01:27:25;;;;;;;3.70;3.40;;;;;;;16.16;42.70;95567.13;4944811;29;20260;-87
2022/12/14 01:29:52;;;;;;;3.60;3.30;;;;;;;20.17;42.83;96243.53;4951047;29;20205;-86
2022/12/14 01:32:18;;;;;;;4.00;3.70;;;;;;;19.50;42.75;96145.66;4961981;28;20206;-87
2022/12/14 01:34:47;;;;;;;4.27;3.87;;;;;;;18.96;42.73;96035.25;4922376;29;20249;-86
2022/12/14 01:37:14;;;;;;;3.73;3.43;;;;;;;20.19;42.96;96229.97;4930040;29;20220;-86
2022/12/14 01:39:40;;;;;;;4.03;3.70;;;;;;;18.50;42.72;95935.25;4948247;29;20245;-86
2022/12/14 01:42:10;;;;;;;3.97;3.57;;;;;;;20.18;42.96;96225.72;4916314;29;20231;-86
2022/12/14 01:44:39;;;;;;;3.73;3.43;;;;;;;19.66;43.28;96162.03;4919120;29;20222;-87
2022/12/14 01:47:27;;;;;;;3.70;3.40;;;;;;;20.18;42.83;96235.91;4939009;29;20205;-86
2022/12/14 01:49:59;;;;;;;4.83;4.10;;;;;;;20.18;43.00;96241.00;4938834;29;20283;-86
2022/12/14 01:52:38;;;;;;;4.17;3.77;;;;;;;20.18;42.95;96232.50;4945208;29;20211;-87
2022/12/14 01:55:15;;;;;;;4.10;3.70;;;;;;;17.47;43.29;95808.09;4940477;29;20232;-86
2022/12/14 01:57:55;;;;;;;3.60;3.30;;;;;;;15.56;43.35;95506.00;4935438;29;20299;-86
2022/12/14 02:00:22;;;;;;;3.80;3.50;;;;;;;16.57;43.04;95646.50;4935999;29;20216;-86
2022/12/14 02:03:01;;;;;;;4.00;3.70;;;;;;;18.40;42.72;96037.66;4936792;29;20277;-86
2022/12/14 02:05:28;;;;;;;4.27;3.87;;;;;;;19.21;43.10;96084.84;4914161;29;20204;-87
2022/12/14 02:07:54;;;;;;;4.17;3.77;;;;;;;17.29;43.06;95756.97;4949582;29;20598;-86
2022/12/14 02:10:22;;;;;;;4.00;3.70;;;;;;;19.20;43.10;96108.59;4942769;29;20209;-87
2022/12/14 02:12:51;;;;;;;4.10;3.70;;;;;;;20.17;43.26;96236.75;4953089;29;20205;-86
2022/12/14 02:15:18;;;;;;;3.87;3.57;;;;;;;20.18;43.10;96237.59;4930195;29;20208;-86
2022/12/14 02:17:44;;;;;;;3.53;3.23;;;;;;;20.19;43.15;96226.56;4953021;29;20244;-86
2022/12/14 02:20:12;;;;;;;4.00;3.70;;;;;;;19.80;43.13;96175.81;4945761;29;20256;-85
2022/12/14 02:23:17;;;;;;;3.80;3.50;;;;;;;20.19;42.89;96224.03;4931085;29;20608;-85
2022/12/14 02:25:56;;;;;;;4.23;3.87;;;;;;;20.19;42.87;96234.22;4936137;29;20223;-86
2022/12/14 02:28:38;;;;;;;3.83;3.53;;;;;;;20.19;43.10;96236.78;4951087;29;20205;-86
2022/12/14 02:31:25;;;;;;;3.93;3.63;;;;;;;17.34;43.24;95763.81;4942437;29;20226;-86
2022/12/14 02:33:55;;;;;;;3.90;3.23;;;;;;;20.18;43.15;96222.28;4919906;29;20228;-85
2022/12/14 02:36:24;;;;;;;4.20;3.80;;;;;;;20.18;42.93;96258.88;4917046;29;20228;-87
2022/12/14 02:38:54;;;;;;;3.77;3.23;;;;;;;20.18;43.24;96227.38;4943056;29;20212;-85
2022/12/14 02:41:37;;;;;;;4.00;3.60;;;;;;;20.18;43.25;96214.63;4946090;29;20212;-87
2022/12/14 02:44:06;;;;;;;4.30;3.90;;;;;;;19.16;43.08;96033.00;4941735;28;20224;-86
2022/12/14 02:46:41;;;;;;;3.80;3.50;;;;;;;20.17;43.54;96236.75;4939962;29;20209;-87
2022/12/14 02:49:20;;;;;;;4.17;3.73;;;;;;;20.17;43.04;96185.75;4923036;29;20238;-87
2022/12/14 02:52:02;;;;;;;3.87;3.47;;;;;;;20.18;43.09;96179.78;4934938;29;20300;-87
2022/12/14 02:54:34;;;;;;;4.00;3.50;;;;;;;18.14;43.25;95839.72;4939942;29;20263;-86
2022/12/14 02:57:18;;;;;;;3.73;3.40;;;;;;;20.18;43.30;96184.03;4948367;29;20232;-86
2022/12/14 02:59:45;;;;;;;3.60;3.30;;;;;;;20.17;43.09;96173.00;4957718;28;20200;-86
2022/12/14 03:02:12;;;;;;;3.77;3.47;;;;;;;18.39;43.38;95866.44;4953435;28;20201;-86
2022/12/14 03:04:44;;;;;;;3.60;3.30;;;;;;;13.50;43.37;95061.09;4943411;29;20285;-87
2022/12/14 03:07:32;;;;;;;3.67;3.37;;;;;;;20.18;43.34;96184.91;4941130;29;20205;-86
2022/12/14 03:10:33;;;;;;;3.70;3.40;;;;;;;19.06;43.06;95981.09;4948501;29;20233;-86
2022/12/14 03:13:36;;;;;;;3.57;3.27;;;;;;;20.19;43.25;96162.81;4933298;29;20209;-86
2022/12/14 03:16:27;;;;;;;3.87;3.53;;;;;;;18.13;42.98;95791.41;4933725;29;20200;-87
2022/12/14 03:18:55;;;;;;;3.80;3.50;;;;;;;14.94;42.97;95281.25;4944934;29;20232;-86
2022/12/14 03:21:45;;;;;;;3.90;3.57;;;;;;;20.18;42.88;96143.22;4941881;29;20201;-87
2022/12/14 03:24:15;;;;;;;4.60;4.10;;;;;;;20.18;42.98;96140.66;4930312;29;20233;-86
2022/12/14 03:26:45;;;;;;;3.90;3.60;;;;;;;16.34;42.99;95534.50;4942920;29;20231;-87
2022/12/14 03:29:28;;;;;;;3.80;3.50;;;;;;;16.28;42.93;95532.72;4947290;29;20207;-87
2022/12/14 03:31:56;;;;;;;3.90;3.60;;;;;;;20.18;42.96;96133.03;4921975;29;20210;-86
2022/12/14 03:34:27;;;;;;;3.97;3.63;;;;;;;20.11;42.88;96121.00;4939284;29;20225;-87
2022/12/14 03:37:14;;;;;;;3.63;3.33;;;;;;;17.75;42.95;95723.91;4921859;29;20226;-86
2022/12/14 03:39:41;;;;;;;3.70;3.40;;;;;;;20.16;43.08;96138.09;4938776;29;20681;-87
2022/12/14 03:42:21;;;;;;;4.13;3.73;;;;;;;20.17;43.09;96136.41;4948486;29;20400;-87
2022/12/14 03:44:57;;;;;;;4.40;4.00;;;;;;;16.85;42.95;95630.97;4955681;29;20239;-87
2022/12/14 03:47:44;;;;;;;4.20;3.80;;;;;;;20.17;42.89;96132.19;4924343;29;20268;-87
2022/12/14 03:50:34;;;;;;;3.63;3.33;;;;;;;20.17;42.98;96139.84;4940697;28;20297;-86
2022/12/14 03:53:17;;;;;;;3.77;3.47;;;;;;;20.17;43.16;96188.28;4950624;28;20240;-84
2022/12/14 03:55:58;;;;;;;3.70;3.40;;;;;;;20.17;42.98;96139.84;4932340;29;20197;-87
2022/12/14 03:58:45;;;;;;;3.73;3.43;;;;;;;16.70;43.15;95537.75;4947329;29;20394;-87
2022/12/14 04:01:23;;;;;;;4.07;3.67;;;;;;;17.89;43.04;95803.72;4953935;29;21578;-87
2022/12/14 04:03:54;;;;;;;3.40;3.10;;;;;;;20.19;43.00;96144.97;4948437;29;20275;-87
2022/12/14 04:06:29;;;;;;;3.90;3.50;;;;;;;13.84;42.91;95060.94;4948956;29;20208;-86
2022/12/14 04:09:05;;;;;;;3.80;3.50;;;;;;;20.19;43.30;96139.84;4948865;29;20275;-86
2022/12/14 04:20:08;;;;;;;3.67;3.37;;;;;;;20.18;42.83;96138.13;4939188;29;20208;-87
2022/12/14 04:22:38;;;;;;;3.73;3.43;;;;;;;20.20;42.90;96133.91;4933723;29;20201;-86
2022/12/14 04:29:54;;;;;;;3.60;3.30;;;;;;;20.19;43.11;96127.94;4940518;29;20207;-86
2022/12/14 04:31:02;;;;;;;3.73;3.43;;;;;;;19.26;43.08;95989.00;4947674;29;20264;-86
2022/12/14 04:33:46;;;;;;;3.77;3.40;;;;;;;20.18;42.91;96143.22;4950498;29;20220;-86
2022/12/14 04:36:22;;;;;;;3.70;3.40;;;;;;;18.26;42.89;95889.06;4913756;29;20220;-86
2022/12/14 04:38:53;;;;;;;4.10;3.70;;;;;;;17.03;43.09;95609.31;4944668;29;20223;-86
2022/12/14 04:41:22;;;;;;;3.67;3.37;;;;;;;14.32;42.99;95125.03;4940804;29;20228;-86
2022/12/14 04:43:49;;;;;;;3.63;3.33;;;;;;;19.11;43.07;95935.31;4952224;29;20248;-87
2022/12/14 04:46:17;;;;;;;4.07;3.77;;;;;;;14.09;42.96;95079.09;4931380;29;20209;-86
2022/12/14 04:48:54;;;;;;;3.37;3.07;;;;;;;20.18;43.19;96102.41;4928728;29;20664;-87
2022/12/14 04:51:32;;;;;;;3.80;3.50;;;;;;;20.19;43.18;96101.59;4936539;29;20653;-86
2022/12/14 04:54:06;;;;;;;4.17;3.70;;;;;;;14.63;43.02;95203.13;4919925;29;20280;-86
2022/12/14 04:56:40;;;;;;;3.63;3.33;;;;;;;18.45;43.01;95799.53;4942361;29;20249;-87
2022/12/14 04:59:07;;;;;;;3.90;3.50;;;;;;;16.49;42.96;95461.28;4940606;29;20263;-85
2022/12/14 05:01:57;;;;;;;3.87;3.30;;;;;;;15.90;43.01;95355.56;4942095;29;20208;-87
2022/12/14 05:04:53;;;;;;;3.77;3.47;;;;;;;20.18;42.93;96093.06;4947094;29;20235;-86
2022/12/14 05:07:40;;;;;;;3.90;3.50;;;;;;;20.18;43.00;96095.63;4947426;29;20201;-86
2022/12/14 05:10:13;;;;;;;4.07;3.67;;;;;;;16.15;43.23;95447.19;4946542;29;20236;-86
2022/12/14 05:13:03;;;;;;;3.83;3.43;;;;;;;20.19;42.78;96089.69;4914395;29;20196;-86
2022/12/14 05:15:38;;;;;;;3.10;2.80;;;;;;;18.80;43.11;95883.13;4941372;29;20251;-86
2022/12/14 05:18:04;;;;;;;3.87;3.57;;;;;;;18.90;42.87;95869.72;4943511;29;20688;-86
2022/12/14 05:20:31;;;;;;;3.50;3.20;;;;;;;20.19;42.95;96079.47;4940972;29;20300;-86
2022/12/14 05:22:58;;;;;;;3.80;3.50;;;;;;;19.91;42.82;96011.13;4967812;23;20217;-93
2022/12/14 05:25:24;;;;;;;3.67;3.37;;;;;;;19.08;42.75;95886.91;4958555;28;20188;-93
2022/12/14 05:27:51;;;;;;;3.57;3.10;;;;;;;18.77;42.70;95811.00;4955914;28;20204;-93
2022/12/14 05:30:17;;;;;;;3.60;3.30;;;;;;;19.89;42.78;95998.34;4956562;28;20249;-93
2022/12/14 05:32:44;;;;;;;4.40;4.00;;;;;;;18.60;42.98;95784.47;4951704;28;20230;-94
2022/12/14 05:35:11;;;;;;;3.90;3.60;;;;;;;19.41;42.76;95902.63;4942933;28;20221;-94
2022/12/14 05:37:39;;;;;;;4.00;3.60;;;;;;;19.40;42.87;95913.66;4937020;28;20282;-93
2022/12/14 05:40:06;;;;;;;3.77;3.43;;;;;;;19.81;42.72;95977.00;4930014;28;20261;-94
2022/12/14 05:42:33;;;;;;;3.90;3.60;;;;;;;19.46;43.01;95901.88;4933138;28;20211;-92
2022/12/14 05:45:05;;;;;;;3.90;3.50;;;;;;;18.64;42.91;95760.78;4925357;28;20213;-94
2022/12/14 05:47:31;;;;;;;4.20;3.80;;;;;;;19.67;42.73;95924.19;4945366;28;20215;-94
2022/12/14 05:49:58;;;;;;;3.87;3.43;;;;;;;19.38;42.72;95895.81;4946026;28;20203;-93
2022/12/14 05:52:25;;;;;;;3.87;3.57;;;;;;;19.59;42.84;95918.13;4927847;28;20214;-92
2022/12/14 05:54:52;;;;;;;3.70;3.40;;;;;;;19.17;43.01;95833.56;4923358;28;20201;-93
2022/12/14 05:57:19;;;;;;;4.20;3.40;;;;;;;18.37;42.99;95706.97;4941404;28;20240;-92
2022/12/14 05:59:45;;;;;;;4.53;3.77;;;;;;;18.78;42.71;95769.44;4951041;28;20778;-92
2022/12/14 06:02:12;;;;;;;3.73;3.43;;;;;;;19.62;42.85;95892.69;4934975;28;20189;-93
2022/12/14 06:04:38;;;;;;;3.60;3.30;;;;;;;20.07;42.89;95953.50;4944072;28;20222;-92
2022/12/14 06:07:08;;;;;;;4.13;3.73;;;;;;;19.27;42.64;95835.41;4921215;29;20206;-92
2022/12/14 06:09:34;;;;;;;3.90;3.50;;;;;;;19.11;42.70;95801.25;4934587;28;20186;-91
2022/12/14 06:12:01;;;;;;;5.03;3.97;;;;;;;19.41;42.74;95870.38;4932888;28;20201;-92
2022/12/14 06:14:27;;;;;;;3.80;3.40;;;;;;;19.66;43.30;95890.19;4938987;28;20206;-92
2022/12/14 06:16:54;;;;;;;6.60;5.60;;;;;;;19.68;41.18;95891.06;4927230;29;20221;-91
2022/12/14 06:19:21;;;;;;;11.63;7.80;;;;;;;19.46;38.79;95848.38;4950277;28;20211;-92
2022/12/14 06:21:47;;;;;;;11.17;8.33;;;;;;;19.83;36.76;95920.94;4932406;28;20413;-93
2022/12/14 06:24:14;;;;;;;10.63;9.33;;;;;;;19.62;34.47;95896.09;4935496;28;20233;-94
2022/12/14 06:26:40;;;;;;;12.67;9.70;;;;;;;19.87;33.11;95945.66;4907096;29;20194;-94
2022/12/14 06:29:12;;;;;;;12.77;10.00;;;;;;;19.87;32.49;95943.09;4932908;28;20197;-93
2022/12/14 06:31:39;;;;;;;15.00;9.93;;;;;;;19.59;32.16;95893.53;4929974;28;20197;-92
2022/12/14 06:34:05;;;;;;;15.73;10.53;;;;;;;19.32;31.81;95849.91;4931514;28;20213;-94
2022/12/14 06:36:33;;;;;;;15.47;10.93;;;;;;;18.61;31.31;95745.47;4940990;28;20237;-91
2022/12/14 06:39:05;;;;;;;17.60;11.13;;;;;;;19.58;31.39;95932.59;4932447;29;20230;-92
2022/12/14 06:41:31;;;;;;;17.77;9.73;;;;;;;19.31;31.55;95881.31;4934770;28;20262;-91
2022/12/14 06:44:04;;;;;;;14.23;9.70;;;;;;;19.70;32.35;95942.06;4932261;28;20225;-93
2022/12/14 06:46:31;;;;;;;17.30;10.97;;;;;;;19.20;33.80;95865.00;4929889;28;20274;-92
2022/12/14 06:48:58;;;;;;;14.00;9.50;;;;;;;19.46;35.42;95896.78;4939021;29;20196;-91
2022/12/14 06:51:24;;;;;;;12.53;9.00;;;;;;;19.71;35.50;95942.06;4943489;29;20213;-91
2022/12/14 06:53:52;;;;;;;14.50;10.00;;;;;;;19.46;35.96;95904.41;4934716;28;20221;-92
2022/12/14 06:56:19;;;;;;;16.13;9.97;;;;;;;18.89;36.34;95801.81;4938523;28;20209;-92
2022/12/14 06:58:45;;;;;;;14.27;9.33;;;;;;;19.74;36.74;95934.47;4932170;28;20222;-92
2022/12/14 07:01:14;;;;;;;13.03;9.33;;;;;;;19.96;37.21;95969.53;4930632;29;20202;-92
2022/12/14 07:03:41;;;;;;;14.17;8.33;;;;;;;19.28;37.51;95854.94;4943831;28;20230;-92
2022/12/14 07:06:09;;;;;;;12.33;8.27;;;;;;;19.32;37.69;95857.53;4956720;28;20206;-93
2022/12/14 07:08:37;;;;;;;13.40;8.70;;;;;;;19.41;38.00;95857.66;4937183;29;20189;-91
2022/12/14 07:11:04;;;;;;;11.57;8.17;;;;;;;19.76;37.82;95921.72;4925519;28;20206;-92
2022/12/14 07:13:31;;;;;;;13.93;8.90;;;;;;;18.43;38.19;95691.84;4934293;28;20228;-92
2022/12/14 07:15:58;;;;;;;14.77;9.33;;;;;;;19.51;37.51;95858.63;4933990;28;20197;-92
2022/12/14 07:18:25;;;;;;;11.30;8.30;;;;;;;18.89;38.03;95750.91;4924844;28;20273;-92
2022/12/14 07:21:00;;;;;;;12.13;8.27;;;;;;;20.03;38.32;95952.63;4941858;28;20236;-92
2022/12/14 07:23:28;;;;;;;13.17;8.17;;;;;;;18.69;38.27;95748.97;4945280;28;20243;-91
2022/12/14 07:26:02;;;;;;;16.57;7.77;;;;;;;18.58;38.50;95720.00;4949089;28;20189;-91
2022/12/14 07:28:29;;;;;;;11.17;8.07;;;;;;;19.49;38.46;95861.16;4945354;28;20210;-91
2022/12/14 07:30:57;;;;;;;11.53;7.87;;;;;;;19.57;38.81;95876.50;4943638;28;20253;-92
2022/12/14 07:33:24;;;;;;;10.30;7.53;;;;;;;18.90;38.92;95769.59;4954668;28;20216;-93
2022/12/14 07:35:51;;;;;;;9.87;7.37;;;;;;;18.70;39.01;95740.50;4949929;28;20202;-93
2022/12/14 07:38:18;;;;;;;8.97;6.90;;;;;;;19.80;39.02;95897.97;4963486;28;20240;-92
2022/12/14 07:40:44;;;;;;;7.27;6.13;;;;;;;18.30;39.23;95646.72;4947194;28;20253;-92
2022/12/14 07:43:11;;;;;;;9.40;6.63;;;;;;;19.01;39.42;95781.59;4948864;28;20253;-93
2022/12/14 07:45:37;;;;;;;9.97;7.67;;;;;;;19.60;39.65;95864.63;4934905;28;20190;-92
2022/12/14 07:48:06;;;;;;;12.57;7.70;;;;;;;20.04;39.48;95940.72;4950120;28;20214;-92
2022/12/14 07:50:32;;;;;;;10.43;6.93;;;;;;;18.59;39.82;95686.94;4948680;28;20224;-92
2022/12/14 07:52:59;;;;;;;9.63;6.43;;;;;;;19.84;39.84;95885.28;4953887;28;20217;-91
2022/12/14 07:55:25;;;;;;;8.60;6.60;;;;;;;19.51;40.12;95818.69;4944061;28;20190;-93
2022/12/14 07:57:52;;;;;;;9.17;6.13;;;;;;;19.65;39.82;95851.94;4938031;28;20280;-91
2022/12/14 08:00:19;;;;;;;8.70;6.30;;;;;;;18.45;40.00;95644.41;4944329;28;20182;-93
2022/12/14 08:02:45;;;;;;;11.30;6.40;;;;;;;19.15;39.95;95753.75;4942582;28;20226;-92
2022/12/14 08:05:12;;;;;;;7.20;5.30;;;;;;;19.20;39.95;95758.06;4945109;28;20193;-93
2022/12/14 08:07:38;;;;;;;8.43;6.10;;;;;;;19.69;39.98;95836.69;4944240;28;20248;-93
2022/12/14 08:10:06;;;;;;;9.20;5.90;;;;;;;19.49;40.04;95794.03;4933105;28;20194;-92
2022/12/14 08:12:32;;;;;;;8.67;5.80;;;;;;;18.71;39.76;95679.44;4939065;28;20214;-92
2022/12/14 08:14:59;;;;;;;9.03;5.90;;;;;;;19.26;40.08;95767.44;4954857;28;20190;-92
2022/12/14 08:17:25;;;;;;;8.57;6.00;;;;;;;19.16;39.95;95750.38;4929298;28;20249;-93
2022/12/14 08:19:52;;;;;;;8.77;6.17;;;;;;;18.92;40.18;95711.94;4937167;28;20194;-92
2022/12/14 08:22:18;;;;;;;8.27;6.20;;;;;;;19.98;40.09;95890.50;4937051;28;20188;-93
2022/12/14 08:24:45;;;;;;;7.30;5.33;;;;;;;19.01;39.98;95729.84;4945822;28;20195;-93
2022/12/14 08:27:15;;;;;;;7.53;5.70;;;;;;;18.59;40.13;95645.41;4940888;28;20192;-93
2022/12/14 08:29:41;;;;;;;7.83;5.83;;;;;;;18.82;40.16;95674.47;4935418;28;20257;-93
2022/12/14 08:32:08;;;;;;;7.03;5.40;;;;;;;18.90;40.61;95685.59;4931794;28;20199;-92
2022/12/14 08:34:34;;;;;;;7.33;5.20;;;;;;;19.98;40.28;95875.22;4938418;28;20192;-91
2022/12/14 08:37:01;;;;;;;7.97;5.10;;;;;;;18.95;40.53;95706.88;4935630;28;20216;-93
2022/12/14 08:39:28;;;;;;;6.43;5.47;;;;;;;19.21;40.54;95744.47;4939267;28;20209;-93
2022/12/14 08:41:54;;;;;;;7.27;5.23;;;;;;;19.00;40.34;95707.75;4945068;28;20197;-91
2022/12/14 08:44:21;;;;;;;6.90;5.80;;;;;;;18.88;40.27;95680.50;4934855;28;20217;-93
2022/12/14 08:46:47;;;;;;;7.30;5.17;;;;;;;19.01;40.05;95704.38;4927759;28;20233;-93
2022/12/14 08:49:14;;;;;;;6.23;5.20;;;;;;;18.78;40.23;95663.44;4935657;28;20216;-93
2022/12/14 08:51:41;;;;;;;6.33;5.10;;;;;;;19.85;40.36;95850.47;4942112;28;20652;-93
2022/12/14 08:54:08;;;;;;;7.77;5.20;;;;;;;18.78;40.60;95650.72;4961673;28;20403;-93
2022/12/14 08:56:34;;;;;;;6.63;5.33;;;;;;;18.21;40.13;95558.50;4936691;28;20190;-92
2022/12/14 08:59:01;;;;;;;9.33;5.07;;;;;;;18.78;40.85;95667.66;4936844;28;20293;-93
2022/12/14 09:01:28;;;;;;;6.63;5.07;;;;;;;19.90;40.39;95844.53;4929481;28;20186;-93
2022/12/14 09:04:04;;;;;;;5.73;5.10;;;;;;;18.39;40.60;95575.66;4931122;28;20212;-93
2022/12/14 09:06:31;;;;;;;6.37;5.00;;;;;;;19.23;40.73;95724.13;4941320;28;20270;-91
2022/12/14 09:08:58;;;;;;;9.03;5.20;;;;;;;19.48;40.58;95749.88;4923298;28;20261;-93
2022/12/14 09:11:24;;;;;;;12.57;5.20;;;;;;;18.95;40.74;95641.53;4929033;28;20185;-93
2022/12/14 09:13:54;;;;;;;5.87;4.60;;;;;;;18.83;40.70;95620.22;4933407;28;20233;-92
2022/12/14 09:16:21;;;;;;;7.27;4.63;;;;;;;18.87;40.71;95648.25;4947797;28;20204;-93
2022/12/14 09:18:48;;;;;;;6.13;5.07;;;;;;;20.29;40.70;95861.94;4932891;28;20214;-93
2022/12/14 09:21:15;;;;;;;6.70;4.67;;;;;;;18.80;40.63;95599.84;4931765;28;20210;-91
2022/12/14 09:23:42;;;;;;;7.23;5.07;;;;;;;19.78;40.74;95746.75;4934423;28;20245;-93
2022/12/14 09:26:16;;;;;;;6.20;4.80;;;;;;;20.29;40.76;95838.09;4939401;28;20266;-93
2022/12/14 09:28:48;;;;;;;6.43;5.47;;;;;;;19.78;40.65;95751.84;4944574;28;20249;-92
2022/12/14 09:31:18;;;;;;;15.90;7.90;;;;;;;20.06;38.88;95797.09;4910416;29;20685;-91
2022/12/14 09:33:45;;;;;;;10.80;9.70;;;;;;;19.96;34.84;95785.97;4948281;29;20240;-91
2022/12/14 09:36:29;;;;;;;12.17;9.83;;;;;;;19.41;33.87;95681.03;4911777;29;20368;-90
2022/12/14 09:38:56;;;;;;;11.20;9.83;;;;;;;18.39;35.55;95528.22;4936969;29;20224;-91
2022/12/14 09:41:32;;;;;;;11.43;8.80;;;;;;;20.22;36.52;95810.88;4931954;29;20232;-91
2022/12/14 09:44:18;;;;;;;15.43;8.77;;;;;;;20.19;36.89;95803.19;4927418;29;20228;-93
2022/12/14 09:47:03;;;;;;;12.90;7.97;;;;;;;20.18;37.27;95804.88;4912321;29;20210;-91
2022/12/14 09:49:48;;;;;;;11.43;8.50;;;;;;;20.18;38.01;95812.53;4910015;29;20292;-91
2022/12/14 09:52:21;;;;;;;11.47;7.87;;;;;;;20.02;38.36;95790.28;4918213;29;20296;-91
2022/12/14 09:54:48;;;;;;;9.60;7.33;;;;;;;19.78;38.45;95774.78;4888600;29;20390;-91
2022/12/14 09:57:34;;;;;;;7.70;6.90;;;;;;;20.17;38.62;95836.34;4918976;29;20581;-91
2022/12/14 10:00:00;;;;;;;7.90;6.80;;;;;;;19.51;38.74;95705.75;4916765;29;20587;-90
2022/12/14 10:02:29;;;;;;;8.27;6.53;;;;;;;19.89;38.89;95757.88;4913197;29;20206;-91
2022/12/14 10:05:16;;;;;;;8.63;7.17;;;;;;;20.20;38.80;95805.75;4930858;29;20210;-91
2022/12/14 10:08:15;;;;;;;7.27;6.57;;;;;;;20.21;38.98;95815.09;4912942;29;20304;-91
2022/12/14 10:11:04;;;;;;;8.10;6.43;;;;;;;19.87;39.02;95749.38;4907107;29;20210;-91
2022/12/14 10:13:37;;;;;;;7.00;6.30;;;;;;;19.79;39.44;95723.81;4909535;29;20257;-91
2022/12/14 10:16:04;;;;;;;6.80;6.07;;;;;;;20.23;39.42;95776.84;4912267;29;20242;-91
2022/12/14 10:18:43;;;;;;;7.10;6.40;;;;;;;20.22;39.44;95750.47;4910218;29;20222;-90
2022/12/14 10:21:46;;;;;;;6.70;5.73;;;;;;;20.23;39.51;95736.91;4918648;29;20641;-91
2022/12/14 10:24:16;;;;;;;7.77;5.43;;;;;;;19.92;39.43;95700.13;4914935;29;20242;-91
2022/12/14 10:26:53;;;;;;;6.83;5.57;;;;;;;19.81;39.32;95694.09;4915484;29;20202;-91
2022/12/14 10:29:46;;;;;;;6.10;5.50;;;;;;;19.74;39.47;95684.69;4921046;29;20360;-92
2022/12/14 10:32:20;;;;;;;7.03;5.83;;;;;;;19.98;39.65;95724.78;4889378;29;20657;-91
2022/12/14 10:34:47;;;;;;;6.47;5.47;;;;;;;19.82;39.40;95716.19;4920870;29;20316;-92
2022/12/14 10:37:34;;;;;;;5.63;5.03;;;;;;;19.98;39.75;95721.41;4888250;29;20224;-91
2022/12/14 10:40:17;;;;;;;7.83;5.67;;;;;;;20.26;39.68;95751.38;4914912;29;20328;-91
2022/12/14 10:43:01;;;;;;;6.67;5.63;;;;;;;20.26;39.79;95739.47;4906434;29;20293;-91
2022/12/14 10:45:55;;;;;;;5.80;5.03;;;;;;;20.25;40.00;95736.91;4926633;29;20288;-90
2022/12/14 10:48:38;;;;;;;6.03;4.93;;;;;;;20.25;39.91;95742.84;4897088;29;20256;-91
2022/12/14 10:51:27;;;;;;;5.93;4.97;;;;;;;20.24;39.88;95736.06;4924852;29;20666;-90
2022/12/14 10:54:01;;;;;;;5.53;4.70;;;;;;;20.16;40.06;95730.03;4917159;29;20612;-91
2022/12/14 10:56:31;;;;;;;6.53;4.77;;;;;;;19.85;39.82;95679.69;4920452;29;20292;-90
2022/12/14 10:59:16;;;;;;;8.23;4.93;;;;;;;20.25;40.04;95731.81;4904491;29;20261;-90
2022/12/14 11:01:44;;;;;;;5.17;4.63;;;;;;;19.71;40.20;95632.84;4925644;29;20202;-91
2022/12/14 11:04:52;;;;;;;5.47;4.90;;;;;;;19.81;40.08;95657.56;4910012;29;20234;-91
2022/12/14 11:07:38;;;;;;;5.97;4.73;;;;;;;19.70;40.22;95639.66;4926562;29;20228;-90
2022/12/14 11:10:17;;;;;;;6.03;4.93;;;;;;;20.24;40.22;95730.09;4925443;29;20649;-92
2022/12/14 11:13:15;;;;;;;6.50;4.47;;;;;;;19.89;40.13;95661.00;4916742;29;20237;-91
2022/12/14 11:15:49;;;;;;;4.77;4.37;;;;;;;20.14;40.12;95708.78;4909049;29;20217;-91
2022/12/14 11:18:16;;;;;;;4.97;4.47;;;;;;;20.25;40.44;95726.72;4914680;29;20236;-91
2022/12/14 11:20:53;;;;;;;5.13;4.27;;;;;;;19.65;40.19;95653.19;4923549;28;20589;-91
2022/12/14 11:23:39;;;;;;;4.37;3.97;;;;;;;20.17;40.25;95710.50;4917864;29;20339;-91
2022/12/14 11:26:22;;;;;;;4.97;4.50;;;;;;;19.77;40.15;95643.06;4887776;29;20217;-90
2022/12/14 11:28:52;;;;;;;5.53;4.47;;;;;;;19.57;40.25;95601.34;4881547;29;20232;-91
2022/12/14 11:31:19;;;;;;;5.00;4.10;;;;;;;20.26;40.43;95716.53;4889469;29;20214;-91
2022/12/14 11:33:50;;;;;;;4.87;4.37;;;;;;;19.92;40.43;95664.44;4915282;29;20236;-91
2022/12/14 11:36:33;;;;;;;4.87;4.37;;;;;;;19.57;40.29;95599.63;4920108;29;20298;-92
2022/12/14 11:39:13;;;;;;;4.97;4.47;;;;;;;19.41;40.23;95579.16;4893180;29;20320;-90
2022/12/14 11:41:39;;;;;;;4.80;4.30;;;;;;;19.79;40.54;95644.81;4901758;29;20205;-90
2022/12/14 11:44:15;;;;;;;4.20;3.80;;;;;;;20.27;40.78;95704.59;4920529;29;20245;-90
2022/12/14 11:46:43;;;;;;;4.57;4.13;;;;;;;19.53;40.66;95577.53;4923861;29;20565;-90
2022/12/14 11:49:22;;;;;;;4.83;4.30;;;;;;;20.26;40.83;95693.56;4919745;29;20669;-90
2022/12/14 11:52:03;;;;;;;5.83;4.07;;;;;;;20.26;40.84;95695.25;4901920;29;20218;-91
2022/12/14 11:54:39;;;;;;;4.17;3.77;;;;;;;20.18;40.70;95686.69;4918776;29;20786;-90
2022/12/14 11:57:12;;;;;;;4.37;3.97;;;;;;;19.90;40.74;95639.78;4908573;29;20213;-90
2022/12/14 12:00:06;;;;;;;4.27;3.83;;;;;;;20.26;40.76;95708.88;4905534;29;20230;-90
2022/12/14 12:02:34;;;;;;;4.77;4.10;;;;;;;20.09;40.76;95674.72;4916277;29;20328;-90
2022/12/14 12:05:10;;;;;;;4.23;3.83;;;;;;;20.05;41.23;95667.91;4899971;29;20623;-91
2022/12/14 12:07:47;;;;;;;6.10;3.93;;;;;;;19.99;40.77;95653.41;4931622;29;20269;-93